sensor_id;sensor_type;location;lat;lon;timestamp;temperature;humidity
22950;DHT22;11641;51.018;4.474;2023-03-14T00:01:58;12.10;99.90
22950;DHT22;11641;51.018;4.474;2023-03-14T00:04:29;12.00;99.90
22950;DHT22;11641;51.018;4.474;2023-03-14T00:06:55;11.90;99.90
22950;DHT22;11641;51.018;4.474;2023-03-14T00:09:20;11.90;99.90
22950;DHT22;11641;51.018;4.474;2023-03-14T00:11:46;11.80;99.90
22950;DHT22;11641;51.018;4.474;2023-03-14T00:14:14;11.80;99.90
22950;DHT22;11641;51.018;4.474;2023-03-14T00:16:42;11.80;99.90
22950;DHT22;11641;51.018;4.474;2023-03-14T00:19:10;11.70;99.90
22950;DHT22;11641;51.018;4.474;2023-03-14T00:21:36;11.70;99.90
22950;DHT22;11641;51.018;4.474;2023-03-14T00:24:02;11.60;99.90
22950;DHT22;11641;51.018;4.474;2023-03-14T00:26:27;11.50;99.90
22950;DHT22;11641;51.018;4.474;2023-03-14T00:28:54;11.50;99.90
22950;DHT22;11641;51.018;4.474;2023-03-14T00:31:22;11.50;99.90
22950;DHT22;11641;51.018;4.474;2023-03-14T00:33:48;11.50;99.90
22950;DHT22;11641;51.018;4.474;2023-03-14T00:36:18;11.50;99.90
22950;DHT22;11641;51.018;4.474;2023-03-14T00:38:47;11.40;99.90
22950;DHT22;11641;51.018;4.474;2023-03-14T00:41:16;11.40;99.90
22950;DHT22;11641;51.018;4.474;2023-03-14T00:43:44;11.40;99.90
22950;DHT22;11641;51.018;4.474;2023-03-14T00:46:12;11.40;99.90
22950;DHT22;11641;51.018;4.474;2023-03-14T00:48:38;11.50;99.90
22950;DHT22;11641;51.018;4.474;2023-03-14T00:51:06;11.40;99.90
22950;DHT22;11641;51.018;4.474;2023-03-14T00:53:36;11.50;99.90
22950;DHT22;11641;51.018;4.474;2023-03-14T00:56:06;11.50;99.90
22950;DHT22;11641;51.018;4.474;2023-03-14T00:58:32;11.50;99.90
22950;DHT22;11641;51.018;4.474;2023-03-14T01:00:58;11.40;99.90
22950;DHT22;11641;51.018;4.474;2023-03-14T01:03:24;11.40;99.90
22950;DHT22;11641;51.018;4.474;2023-03-14T01:05:50;11.50;99.90
22950;DHT22;11641;51.018;4.474;2023-03-14T01:08:16;11.50;99.90
22950;DHT22;11641;51.018;4.474;2023-03-14T01:10:44;11.50;99.90
22950;DHT22;11641;51.018;4.474;2023-03-14T01:13:09;11.60;99.90
22950;DHT22;11641;51.018;4.474;2023-03-14T01:15:36;11.50;99.90
22950;DHT22;11641;51.018;4.474;2023-03-14T01:18:03;11.60;99.90
22950;DHT22;11641;51.018;4.474;2023-03-14T01:20:28;11.60;99.90
22950;DHT22;11641;51.018;4.474;2023-03-14T01:22:54;11.60;99.90
22950;DHT22;11641;51.018;4.474;2023-03-14T01:25:22;11.70;99.90
22950;DHT22;11641;51.018;4.474;2023-03-14T01:27:47;11.80;99.90
22950;DHT22;11641;51.018;4.474;2023-03-14T01:30:13;11.70;99.90
22950;DHT22;11641;51.018;4.474;2023-03-14T01:32:39;11.70;99.90
22950;DHT22;11641;51.018;4.474;2023-03-14T01:35:06;11.70;99.90
22950;DHT22;11641;51.018;4.474;2023-03-14T01:37:31;11.70;99.90
22950;DHT22;11641;51.018;4.474;2023-03-14T01:39:57;11.90;99.90
22950;DHT22;11641;51.018;4.474;2023-03-14T01:42:23;11.80;99.90
22950;DHT22;11641;51.018;4.474;2023-03-14T01:44:53;11.70;99.90
22950;DHT22;11641;51.018;4.474;2023-03-14T01:47:19;11.80;99.90
22950;DHT22;11641;51.018;4.474;2023-03-14T01:49:47;11.70;99.90
22950;DHT22;11641;51.018;4.474;2023-03-14T01:52:46;11.80;99.90
22950;DHT22;11641;51.018;4.474;2023-03-14T01:55:16;11.80;99.90
22950;DHT22;11641;51.018;4.474;2023-03-14T01:57:50;11.90;99.90
22950;DHT22;11641;51.018;4.474;2023-03-14T02:00:20;11.80;99.90
22950;DHT22;11641;51.018;4.474;2023-03-14T02:03:10;11.60;99.90
22950;DHT22;11641;51.018;4.474;2023-03-14T02:05:39;11.50;99.90
22950;DHT22;11641;51.018;4.474;2023-03-14T02:08:11;11.50;99.90
22950;DHT22;11641;51.018;4.474;2023-03-14T02:10:41;11.50;99.90
22950;DHT22;11641;51.018;4.474;2023-03-14T02:13:11;11.40;99.90
22950;DHT22;11641;51.018;4.474;2023-03-14T02:15:41;11.50;99.90
22950;DHT22;11641;51.018;4.474;2023-03-14T02:18:08;11.50;99.90
22950;DHT22;11641;51.018;4.474;2023-03-14T02:23:17;11.50;99.90
22950;DHT22;11641;51.018;4.474;2023-03-14T02:26:05;11.30;99.90
22950;DHT22;11641;51.018;4.474;2023-03-14T02:28:33;11.40;99.90
22950;DHT22;11641;51.018;4.474;2023-03-14T02:30:58;11.40;99.90
22950;DHT22;11641;51.018;4.474;2023-03-14T02:33:24;11.50;99.90
22950;DHT22;11641;51.018;4.474;2023-03-14T02:36:01;11.50;99.90
22950;DHT22;11641;51.018;4.474;2023-03-14T02:38:35;11.50;99.90
22950;DHT22;11641;51.018;4.474;2023-03-14T02:41:03;11.50;99.90
22950;DHT22;11641;51.018;4.474;2023-03-14T02:43:29;11.40;99.90
22950;DHT22;11641;51.018;4.474;2023-03-14T02:45:55;11.40;99.90
22950;DHT22;11641;51.018;4.474;2023-03-14T02:50:57;11.30;99.90
22950;DHT22;11641;51.018;4.474;2023-03-14T02:53:30;11.20;99.90
22950;DHT22;11641;51.018;4.474;2023-03-14T02:55:57;11.30;99.90
22950;DHT22;11641;51.018;4.474;2023-03-14T02:58:23;11.30;99.90
22950;DHT22;11641;51.018;4.474;2023-03-14T03:00:48;11.10;99.90
22950;DHT22;11641;51.018;4.474;2023-03-14T03:03:14;11.00;99.90
22950;DHT22;11641;51.018;4.474;2023-03-14T03:05:40;11.00;99.90
22950;DHT22;11641;51.018;4.474;2023-03-14T03:08:08;11.00;99.90
22950;DHT22;11641;51.018;4.474;2023-03-14T03:10:34;11.10;99.90
22950;DHT22;11641;51.018;4.474;2023-03-14T03:13:00;11.00;99.90
22950;DHT22;11641;51.018;4.474;2023-03-14T03:15:26;11.00;99.90
22950;DHT22;11641;51.018;4.474;2023-03-14T03:17:51;11.10;99.90
22950;DHT22;11641;51.018;4.474;2023-03-14T03:20:17;11.20;99.90
22950;DHT22;11641;51.018;4.474;2023-03-14T03:22:43;11.20;99.90
22950;DHT22;11641;51.018;4.474;2023-03-14T03:25:09;11.20;99.90
22950;DHT22;11641;51.018;4.474;2023-03-14T03:27:38;11.20;99.90
22950;DHT22;11641;51.018;4.474;2023-03-14T03:30:05;11.10;99.90
22950;DHT22;11641;51.018;4.474;2023-03-14T03:32:31;11.20;99.90
22950;DHT22;11641;51.018;4.474;2023-03-14T03:34:57;11.20;99.90
22950;DHT22;11641;51.018;4.474;2023-03-14T03:37:23;11.20;99.90
22950;DHT22;11641;51.018;4.474;2023-03-14T03:39:51;11.30;99.90
22950;DHT22;11641;51.018;4.474;2023-03-14T03:42:19;11.40;99.90
22950;DHT22;11641;51.018;4.474;2023-03-14T03:44:45;11.30;99.90
22950;DHT22;11641;51.018;4.474;2023-03-14T03:47:11;11.30;99.90
22950;DHT22;11641;51.018;4.474;2023-03-14T03:49:36;11.30;99.90
22950;DHT22;11641;51.018;4.474;2023-03-14T03:52:02;11.50;99.90
22950;DHT22;11641;51.018;4.474;2023-03-14T03:54:28;11.40;99.90
22950;DHT22;11641;51.018;4.474;2023-03-14T03:56:54;11.50;99.90
22950;DHT22;11641;51.018;4.474;2023-03-14T03:59:22;11.40;99.90
22950;DHT22;11641;51.018;4.474;2023-03-14T04:01:48;11.60;99.90
22950;DHT22;11641;51.018;4.474;2023-03-14T04:04:16;11.60;99.90
22950;DHT22;11641;51.018;4.474;2023-03-14T04:06:42;11.50;99.90
22950;DHT22;11641;51.018;4.474;2023-03-14T04:09:11;11.50;99.90
22950;DHT22;11641;51.018;4.474;2023-03-14T04:11:39;11.40;99.90
22950;DHT22;11641;51.018;4.474;2023-03-14T04:14:05;11.40;99.90
22950;DHT22;11641;51.018;4.474;2023-03-14T04:16:31;11.50;99.90
22950;DHT22;11641;51.018;4.474;2023-03-14T04:18:57;11.50;99.90
22950;DHT22;11641;51.018;4.474;2023-03-14T04:21:23;11.40;99.90
22950;DHT22;11641;51.018;4.474;2023-03-14T04:23:50;11.30;99.90
22950;DHT22;11641;51.018;4.474;2023-03-14T04:26:15;11.40;99.90
22950;DHT22;11641;51.018;4.474;2023-03-14T04:28:43;11.40;99.90
22950;DHT22;11641;51.018;4.474;2023-03-14T04:31:14;11.50;99.90
22950;DHT22;11641;51.018;4.474;2023-03-14T04:33:40;11.50;99.90
22950;DHT22;11641;51.018;4.474;2023-03-14T04:36:07;11.50;99.90
22950;DHT22;11641;51.018;4.474;2023-03-14T04:38:33;11.40;99.90
22950;DHT22;11641;51.018;4.474;2023-03-14T04:40:59;11.40;99.90
22950;DHT22;11641;51.018;4.474;2023-03-14T04:43:26;11.30;99.90
22950;DHT22;11641;51.018;4.474;2023-03-14T04:45:56;11.40;99.90
22950;DHT22;11641;51.018;4.474;2023-03-14T04:48:23;11.30;99.90
22950;DHT22;11641;51.018;4.474;2023-03-14T04:50:49;11.40;99.90
22950;DHT22;11641;51.018;4.474;2023-03-14T04:53:17;11.30;99.90
22950;DHT22;11641;51.018;4.474;2023-03-14T04:55:47;11.20;99.90
22950;DHT22;11641;51.018;4.474;2023-03-14T04:58:13;11.30;99.90
22950;DHT22;11641;51.018;4.474;2023-03-14T05:00:39;11.40;99.90
22950;DHT22;11641;51.018;4.474;2023-03-14T05:03:07;11.40;99.90
22950;DHT22;11641;51.018;4.474;2023-03-14T05:05:33;11.30;99.90
22950;DHT22;11641;51.018;4.474;2023-03-14T05:08:01;11.10;99.90
22950;DHT22;11641;51.018;4.474;2023-03-14T05:10:29;11.20;99.90
22950;DHT22;11641;51.018;4.474;2023-03-14T05:12:55;11.20;99.90
22950;DHT22;11641;51.018;4.474;2023-03-14T05:15:21;11.30;99.90
22950;DHT22;11641;51.018;4.474;2023-03-14T05:17:46;11.20;99.90
22950;DHT22;11641;51.018;4.474;2023-03-14T05:20:14;11.20;99.90
22950;DHT22;11641;51.018;4.474;2023-03-14T05:22:42;11.20;99.90
22950;DHT22;11641;51.018;4.474;2023-03-14T05:25:08;11.20;99.90
22950;DHT22;11641;51.018;4.474;2023-03-14T05:27:35;11.10;99.90
22950;DHT22;11641;51.018;4.474;2023-03-14T05:30:02;11.10;99.90
22950;DHT22;11641;51.018;4.474;2023-03-14T05:32:28;11.10;99.90
22950;DHT22;11641;51.018;4.474;2023-03-14T05:34:56;11.20;99.90
22950;DHT22;11641;51.018;4.474;2023-03-14T05:37:27;11.20;99.90
22950;DHT22;11641;51.018;4.474;2023-03-14T05:39:53;11.20;99.90
22950;DHT22;11641;51.018;4.474;2023-03-14T05:42:19;11.40;99.90
22950;DHT22;11641;51.018;4.474;2023-03-14T05:44:45;11.40;99.90
22950;DHT22;11641;51.018;4.474;2023-03-14T05:47:10;11.30;99.90
22950;DHT22;11641;51.018;4.474;2023-03-14T05:49:36;11.20;99.90
22950;DHT22;11641;51.018;4.474;2023-03-14T05:52:02;11.30;99.90
22950;DHT22;11641;51.018;4.474;2023-03-14T05:54:27;11.40;99.90
22950;DHT22;11641;51.018;4.474;2023-03-14T05:56:53;11.50;99.90
22950;DHT22;11641;51.018;4.474;2023-03-14T05:59:21;11.50;99.90
22950;DHT22;11641;51.018;4.474;2023-03-14T06:01:47;11.50;99.90
22950;DHT22;11641;51.018;4.474;2023-03-14T06:04:17;11.50;99.90
22950;DHT22;11641;51.018;4.474;2023-03-14T06:06:42;11.50;99.90
22950;DHT22;11641;51.018;4.474;2023-03-14T06:09:08;11.60;99.90
22950;DHT22;11641;51.018;4.474;2023-03-14T06:11:34;11.60;99.90
22950;DHT22;11641;51.018;4.474;2023-03-14T06:14:01;11.70;99.90
22950;DHT22;11641;51.018;4.474;2023-03-14T06:16:27;11.80;99.90
22950;DHT22;11641;51.018;4.474;2023-03-14T06:18:53;11.70;99.90
22950;DHT22;11641;51.018;4.474;2023-03-14T06:21:19;11.60;99.90
22950;DHT22;11641;51.018;4.474;2023-03-14T06:23:47;11.40;99.90
22950;DHT22;11641;51.018;4.474;2023-03-14T06:26:15;11.30;99.90
22950;DHT22;11641;51.018;4.474;2023-03-14T06:28:41;11.20;99.90
22950;DHT22;11641;51.018;4.474;2023-03-14T06:31:09;11.10;99.90
22950;DHT22;11641;51.018;4.474;2023-03-14T06:33:34;11.10;99.90
22950;DHT22;11641;51.018;4.474;2023-03-14T06:36:00;11.10;99.90
22950;DHT22;11641;51.018;4.474;2023-03-14T06:38:26;10.90;99.90
22950;DHT22;11641;51.018;4.474;2023-03-14T06:40:54;10.90;99.90
22950;DHT22;11641;51.018;4.474;2023-03-14T06:43:19;10.90;99.90
22950;DHT22;11641;51.018;4.474;2023-03-14T06:45:45;10.90;99.90
22950;DHT22;11641;51.018;4.474;2023-03-14T06:48:13;10.80;99.90
22950;DHT22;11641;51.018;4.474;2023-03-14T06:50:38;10.60;99.90
22950;DHT22;11641;51.018;4.474;2023-03-14T06:53:04;9.90;99.90
22950;DHT22;11641;51.018;4.474;2023-03-14T06:55:30;9.60;99.90
22950;DHT22;11641;51.018;4.474;2023-03-14T06:57:55;9.30;99.90
22950;DHT22;11641;51.018;4.474;2023-03-14T07:00:21;8.80;99.90
22950;DHT22;11641;51.018;4.474;2023-03-14T07:02:47;8.60;99.90
22950;DHT22;11641;51.018;4.474;2023-03-14T07:05:15;8.50;99.90
22950;DHT22;11641;51.018;4.474;2023-03-14T07:07:41;8.40;99.90
22950;DHT22;11641;51.018;4.474;2023-03-14T07:10:06;8.40;99.90
22950;DHT22;11641;51.018;4.474;2023-03-14T07:12:34;8.30;99.90
22950;DHT22;11641;51.018;4.474;2023-03-14T07:14:59;8.10;99.90
22950;DHT22;11641;51.018;4.474;2023-03-14T07:17:25;8.10;99.90
22950;DHT22;11641;51.018;4.474;2023-03-14T07:19:51;8.10;99.90
22950;DHT22;11641;51.018;4.474;2023-03-14T07:22:16;8.00;99.90
22950;DHT22;11641;51.018;4.474;2023-03-14T07:24:42;8.10;99.90
22950;DHT22;11641;51.018;4.474;2023-03-14T07:27:07;8.20;99.90
22950;DHT22;11641;51.018;4.474;2023-03-14T07:29:33;8.00;99.90
22950;DHT22;11641;51.018;4.474;2023-03-14T07:31:59;8.00;99.90
22950;DHT22;11641;51.018;4.474;2023-03-14T07:34:24;8.00;99.90
22950;DHT22;11641;51.018;4.474;2023-03-14T07:36:52;8.10;99.90
22950;DHT22;11641;51.018;4.474;2023-03-14T07:39:18;8.20;99.90
22950;DHT22;11641;51.018;4.474;2023-03-14T07:41:44;8.30;99.90
22950;DHT22;11641;51.018;4.474;2023-03-14T07:44:12;8.30;99.90
22950;DHT22;11641;51.018;4.474;2023-03-14T07:46:37;8.30;99.90
22950;DHT22;11641;51.018;4.474;2023-03-14T07:49:05;8.20;99.90
22950;DHT22;11641;51.018;4.474;2023-03-14T07:51:33;8.20;99.90
22950;DHT22;11641;51.018;4.474;2023-03-14T07:53:59;8.10;99.90
22950;DHT22;11641;51.018;4.474;2023-03-14T07:56:24;8.30;99.90
22950;DHT22;11641;51.018;4.474;2023-03-14T07:58:52;8.30;99.90
22950;DHT22;11641;51.018;4.474;2023-03-14T08:01:18;8.40;99.90
22950;DHT22;11641;51.018;4.474;2023-03-14T08:03:44;8.20;99.90
22950;DHT22;11641;51.018;4.474;2023-03-14T08:06:09;8.40;99.90
22950;DHT22;11641;51.018;4.474;2023-03-14T08:08:35;8.50;99.90
22950;DHT22;11641;51.018;4.474;2023-03-14T08:11:05;8.50;99.90
22950;DHT22;11641;51.018;4.474;2023-03-14T08:13:34;8.60;99.90
22950;DHT22;11641;51.018;4.474;2023-03-14T08:16:00;8.50;99.90
22950;DHT22;11641;51.018;4.474;2023-03-14T08:18:26;8.60;99.90
22950;DHT22;11641;51.018;4.474;2023-03-14T08:20:51;8.50;99.90
22950;DHT22;11641;51.018;4.474;2023-03-14T08:23:19;8.60;99.90
22950;DHT22;11641;51.018;4.474;2023-03-14T08:25:45;8.70;99.90
22950;DHT22;11641;51.018;4.474;2023-03-14T08:28:10;8.50;99.90
22950;DHT22;11641;51.018;4.474;2023-03-14T08:30:36;8.60;99.90
22950;DHT22;11641;51.018;4.474;2023-03-14T08:33:02;8.50;99.90
22950;DHT22;11641;51.018;4.474;2023-03-14T08:35:28;8.30;99.90
22950;DHT22;11641;51.018;4.474;2023-03-14T08:37:56;8.20;99.90
22950;DHT22;11641;51.018;4.474;2023-03-14T08:40:21;8.20;99.90
22950;DHT22;11641;51.018;4.474;2023-03-14T08:42:47;8.40;99.90
22950;DHT22;11641;51.018;4.474;2023-03-14T08:45:14;8.40;99.90
22950;DHT22;11641;51.018;4.474;2023-03-14T08:47:42;8.50;99.90
22950;DHT22;11641;51.018;4.474;2023-03-14T08:50:08;8.90;99.90
22950;DHT22;11641;51.018;4.474;2023-03-14T08:52:34;8.90;99.90
22950;DHT22;11641;51.018;4.474;2023-03-14T08:55:06;8.90;99.90
22950;DHT22;11641;51.018;4.474;2023-03-14T08:57:32;9.00;99.90
22950;DHT22;11641;51.018;4.474;2023-03-14T09:00:00;9.00;99.90
22950;DHT22;11641;51.018;4.474;2023-03-14T09:02:26;9.00;99.90
22950;DHT22;11641;51.018;4.474;2023-03-14T09:04:52;9.00;99.90
22950;DHT22;11641;51.018;4.474;2023-03-14T09:07:19;9.30;99.90
22950;DHT22;11641;51.018;4.474;2023-03-14T09:09:45;9.70;99.90
22950;DHT22;11641;51.018;4.474;2023-03-14T09:12:15;9.90;99.90
22950;DHT22;11641;51.018;4.474;2023-03-14T09:14:41;9.90;99.90
22950;DHT22;11641;51.018;4.474;2023-03-14T09:17:08;9.70;99.90
22950;DHT22;11641;51.018;4.474;2023-03-14T09:19:37;9.60;99.90
22950;DHT22;11641;51.018;4.474;2023-03-14T09:22:02;9.40;99.90
22950;DHT22;11641;51.018;4.474;2023-03-14T09:24:28;9.20;99.90
22950;DHT22;11641;51.018;4.474;2023-03-14T09:26:55;9.00;99.90
22950;DHT22;11641;51.018;4.474;2023-03-14T09:29:21;8.90;99.90
22950;DHT22;11641;51.018;4.474;2023-03-14T09:31:47;8.90;99.90
22950;DHT22;11641;51.018;4.474;2023-03-14T09:34:13;9.10;99.90
22950;DHT22;11641;51.018;4.474;2023-03-14T09:36:38;9.30;99.90
22950;DHT22;11641;51.018;4.474;2023-03-14T09:39:05;9.50;99.90
22950;DHT22;11641;51.018;4.474;2023-03-14T09:41:34;9.80;99.90
22950;DHT22;11641;51.018;4.474;2023-03-14T09:44:21;9.90;99.90
22950;DHT22;11641;51.018;4.474;2023-03-14T09:46:52;9.90;99.90
22950;DHT22;11641;51.018;4.474;2023-03-14T09:49:23;9.80;99.90
22950;DHT22;11641;51.018;4.474;2023-03-14T09:51:54;9.70;99.90
22950;DHT22;11641;51.018;4.474;2023-03-14T09:54:42;9.40;99.90
22950;DHT22;11641;51.018;4.474;2023-03-14T09:57:14;9.20;99.90
22950;DHT22;11641;51.018;4.474;2023-03-14T09:59:44;9.20;99.90
22950;DHT22;11641;51.018;4.474;2023-03-14T10:02:22;9.00;99.90
22950;DHT22;11641;51.018;4.474;2023-03-14T10:04:51;9.00;99.90
22950;DHT22;11641;51.018;4.474;2023-03-14T10:07:31;8.70;99.90
22950;DHT22;11641;51.018;4.474;2023-03-14T10:09:58;8.50;99.90
22950;DHT22;11641;51.018;4.474;2023-03-14T10:12:36;8.50;99.90
22950;DHT22;11641;51.018;4.474;2023-03-14T10:15:30;8.50;99.90
22950;DHT22;11641;51.018;4.474;2023-03-14T10:17:59;8.40;99.90
22950;DHT22;11641;51.018;4.474;2023-03-14T10:23:00;8.30;99.90
22950;DHT22;11641;51.018;4.474;2023-03-14T10:25:32;8.30;99.90
22950;DHT22;11641;51.018;4.474;2023-03-14T10:28:03;8.60;99.90
22950;DHT22;11641;51.018;4.474;2023-03-14T10:32:56;8.40;99.90
22950;DHT22;11641;51.018;4.474;2023-03-14T10:35:22;8.30;99.90
22950;DHT22;11641;51.018;4.474;2023-03-14T10:38:00;8.30;99.90
22950;DHT22;11641;51.018;4.474;2023-03-14T10:40:40;8.20;99.90
22950;DHT22;11641;51.018;4.474;2023-03-14T10:43:13;8.10;99.90
22950;DHT22;11641;51.018;4.474;2023-03-14T10:45:42;8.10;99.90
22950;DHT22;11641;51.018;4.474;2023-03-14T10:53:17;7.50;99.90
22950;DHT22;11641;51.018;4.474;2023-03-14T10:55:44;7.10;99.90
22950;DHT22;11641;51.018;4.474;2023-03-14T10:58:28;7.00;99.90
22950;DHT22;11641;51.018;4.474;2023-03-14T11:03:32;6.80;99.90
22950;DHT22;11641;51.018;4.474;2023-03-14T11:09:06;7.00;99.90
22950;DHT22;11641;51.018;4.474;2023-03-14T11:11:34;7.10;99.90
22950;DHT22;11641;51.018;4.474;2023-03-14T11:14:16;7.30;99.90
22950;DHT22;11641;51.018;4.474;2023-03-14T11:22:23;7.80;99.90
22950;DHT22;11641;51.018;4.474;2023-03-14T11:25:18;7.90;99.90
22950;DHT22;11641;51.018;4.474;2023-03-14T11:31:01;7.90;99.90
22950;DHT22;11641;51.018;4.474;2023-03-14T11:33:51;7.70;99.90
22950;DHT22;11641;51.018;4.474;2023-03-14T11:36:38;7.60;99.90
22950;DHT22;11641;51.018;4.474;2023-03-14T11:39:17;7.70;99.90
22950;DHT22;11641;51.018;4.474;2023-03-14T11:41:57;7.80;99.90
22950;DHT22;11641;51.018;4.474;2023-03-14T11:44:30;8.40;99.90
22950;DHT22;11641;51.018;4.474;2023-03-14T11:49:34;8.70;99.90
22950;DHT22;11641;51.018;4.474;2023-03-14T11:57:23;9.10;99.90
22950;DHT22;11641;51.018;4.474;2023-03-14T12:07:38;8.50;99.90
22950;DHT22;11641;51.018;4.474;2023-03-14T12:10:05;7.60;99.90
22950;DHT22;11641;51.018;4.474;2023-03-14T12:12:32;7.30;99.90
22950;DHT22;11641;51.018;4.474;2023-03-14T12:15:02;7.30;99.90
22950;DHT22;11641;51.018;4.474;2023-03-14T12:17:40;7.40;99.90
22950;DHT22;11641;51.018;4.474;2023-03-14T12:25:27;8.20;99.90
22950;DHT22;11641;51.018;4.474;2023-03-14T12:35:44;9.30;99.90
22950;DHT22;11641;51.018;4.474;2023-03-14T12:38:14;9.40;99.90
22950;DHT22;11641;51.018;4.474;2023-03-14T12:41:08;9.60;99.90
22950;DHT22;11641;51.018;4.474;2023-03-14T12:43:37;9.90;99.90
22950;DHT22;11641;51.018;4.474;2023-03-14T12:48:44;9.60;99.90
22950;DHT22;11641;51.018;4.474;2023-03-14T12:51:28;9.50;99.90
22950;DHT22;11641;51.018;4.474;2023-03-14T12:56:40;9.30;99.90
22950;DHT22;11641;51.018;4.474;2023-03-14T12:59:32;9.20;99.90
22950;DHT22;11641;51.018;4.474;2023-03-14T13:07:03;7.80;99.90
22950;DHT22;11641;51.018;4.474;2023-03-14T13:11:56;8.30;99.90
22950;DHT22;11641;51.018;4.474;2023-03-14T13:14:29;8.60;99.90
22950;DHT22;11641;51.018;4.474;2023-03-14T13:16:55;8.80;99.90
22950;DHT22;11641;51.018;4.474;2023-03-14T13:19:26;9.00;99.90
22950;DHT22;11641;51.018;4.474;2023-03-14T13:22:04;9.10;99.90
22950;DHT22;11641;51.018;4.474;2023-03-14T13:24:33;9.40;99.90
22950;DHT22;11641;51.018;4.474;2023-03-14T13:27:00;9.60;99.90
22950;DHT22;11641;51.018;4.474;2023-03-14T13:29:28;9.80;99.90
22950;DHT22;11641;51.018;4.474;2023-03-14T13:31:56;9.90;99.90
22950;DHT22;11641;51.018;4.474;2023-03-14T13:34:28;9.90;99.90
22950;DHT22;11641;51.018;4.474;2023-03-14T13:36:54;9.80;99.90
22950;DHT22;11641;51.018;4.474;2023-03-14T13:39:22;9.90;99.90
22950;DHT22;11641;51.018;4.474;2023-03-14T13:41:51;9.90;99.90
22950;DHT22;11641;51.018;4.474;2023-03-14T13:44:29;9.50;99.90
22950;DHT22;11641;51.018;4.474;2023-03-14T13:47:03;9.30;99.90
22950;DHT22;11641;51.018;4.474;2023-03-14T13:49:32;9.30;99.90
22950;DHT22;11641;51.018;4.474;2023-03-14T13:52:01;9.10;99.90
22950;DHT22;11641;51.018;4.474;2023-03-14T13:54:27;9.10;99.90
22950;DHT22;11641;51.018;4.474;2023-03-14T13:57:06;9.00;99.90
22950;DHT22;11641;51.018;4.474;2023-03-14T13:59:33;8.90;99.90
22950;DHT22;11641;51.018;4.474;2023-03-14T14:02:04;9.00;99.90
22950;DHT22;11641;51.018;4.474;2023-03-14T14:04:33;9.20;99.90
22950;DHT22;11641;51.018;4.474;2023-03-14T14:07:06;9.50;99.90
22950;DHT22;11641;51.018;4.474;2023-03-14T14:13:13;9.60;99.90
22950;DHT22;11641;51.018;4.474;2023-03-14T14:15:44;9.90;99.90
22950;DHT22;11641;51.018;4.474;2023-03-14T14:18:13;10.00;99.90
22950;DHT22;11641;51.018;4.474;2023-03-14T14:20:45;9.90;99.90
22950;DHT22;11641;51.018;4.474;2023-03-14T14:25:45;9.50;99.90
22950;DHT22;11641;51.018;4.474;2023-03-14T14:28:57;9.10;99.90
22950;DHT22;11641;51.018;4.474;2023-03-14T14:31:23;8.70;99.90
22950;DHT22;11641;51.018;4.474;2023-03-14T14:36:28;8.30;99.90
22950;DHT22;11641;51.018;4.474;2023-03-14T14:39:10;8.10;99.90
22950;DHT22;11641;51.018;4.474;2023-03-14T14:41:40;7.80;99.90
22950;DHT22;11641;51.018;4.474;2023-03-14T14:44:07;7.60;99.90
22950;DHT22;11641;51.018;4.474;2023-03-14T14:46:34;7.60;99.90
22950;DHT22;11641;51.018;4.474;2023-03-14T14:49:13;7.60;99.90
22950;DHT22;11641;51.018;4.474;2023-03-14T14:51:44;7.50;99.90
22950;DHT22;11641;51.018;4.474;2023-03-14T14:54:13;7.70;99.90
22950;DHT22;11641;51.018;4.474;2023-03-14T14:56:39;7.80;99.90
22950;DHT22;11641;51.018;4.474;2023-03-14T14:59:17;8.00;99.90
22950;DHT22;11641;51.018;4.474;2023-03-14T15:01:43;8.10;99.90
22950;DHT22;11641;51.018;4.474;2023-03-14T15:04:14;8.00;99.90
22950;DHT22;11641;51.018;4.474;2023-03-14T15:06:44;8.20;99.90
22950;DHT22;11641;51.018;4.474;2023-03-14T15:09:12;8.50;99.90
22950;DHT22;11641;51.018;4.474;2023-03-14T15:11:38;8.50;99.90
22950;DHT22;11641;51.018;4.474;2023-03-14T15:14:03;8.60;99.90
22950;DHT22;11641;51.018;4.474;2023-03-14T15:16:31;8.70;99.90
22950;DHT22;11641;51.018;4.474;2023-03-14T15:19:02;8.70;99.90
22950;DHT22;11641;51.018;4.474;2023-03-14T15:21:31;8.50;99.90
22950;DHT22;11641;51.018;4.474;2023-03-14T15:24:00;8.40;99.90
22950;DHT22;11641;51.018;4.474;2023-03-14T15:26:29;8.40;99.90
22950;DHT22;11641;51.018;4.474;2023-03-14T15:28:54;8.50;99.90
22950;DHT22;11641;51.018;4.474;2023-03-14T15:31:20;8.60;99.90
22950;DHT22;11641;51.018;4.474;2023-03-14T15:33:49;8.70;99.90
22950;DHT22;11641;51.018;4.474;2023-03-14T15:36:28;8.60;99.90
22950;DHT22;11641;51.018;4.474;2023-03-14T15:38:56;8.60;99.90
22950;DHT22;11641;51.018;4.474;2023-03-14T15:41:23;8.50;99.90
22950;DHT22;11641;51.018;4.474;2023-03-14T15:43:51;8.40;99.90
22950;DHT22;11641;51.018;4.474;2023-03-14T15:46:18;8.30;99.90
22950;DHT22;11641;51.018;4.474;2023-03-14T15:48:44;8.40;99.90
22950;DHT22;11641;51.018;4.474;2023-03-14T15:51:13;8.60;99.90
22950;DHT22;11641;51.018;4.474;2023-03-14T15:53:41;8.60;99.90
22950;DHT22;11641;51.018;4.474;2023-03-14T15:56:16;8.30;99.90
22950;DHT22;11641;51.018;4.474;2023-03-14T15:58:42;8.10;99.90
22950;DHT22;11641;51.018;4.474;2023-03-14T16:01:12;7.80;99.90
22950;DHT22;11641;51.018;4.474;2023-03-14T16:03:38;7.80;99.90
22950;DHT22;11641;51.018;4.474;2023-03-14T16:06:05;7.70;99.90
22950;DHT22;11641;51.018;4.474;2023-03-14T16:08:31;7.80;99.90
22950;DHT22;11641;51.018;4.474;2023-03-14T16:11:00;7.90;99.90
22950;DHT22;11641;51.018;4.474;2023-03-14T16:13:28;8.00;99.90
22950;DHT22;11641;51.018;4.474;2023-03-14T16:15:59;7.90;99.90
22950;DHT22;11641;51.018;4.474;2023-03-14T16:18:27;7.90;99.90
22950;DHT22;11641;51.018;4.474;2023-03-14T16:20:58;7.90;99.90
22950;DHT22;11641;51.018;4.474;2023-03-14T16:23:25;7.90;99.90
22950;DHT22;11641;51.018;4.474;2023-03-14T16:25:54;8.00;99.90
22950;DHT22;11641;51.018;4.474;2023-03-14T16:28:20;8.00;99.90
22950;DHT22;11641;51.018;4.474;2023-03-14T16:30:48;8.00;99.90
22950;DHT22;11641;51.018;4.474;2023-03-14T16:33:15;7.90;99.90
22950;DHT22;11641;51.018;4.474;2023-03-14T16:35:41;7.90;99.90
22950;DHT22;11641;51.018;4.474;2023-03-14T16:38:09;7.70;99.90
22950;DHT22;11641;51.018;4.474;2023-03-14T16:40:35;7.60;99.90
22950;DHT22;11641;51.018;4.474;2023-03-14T16:43:00;7.70;99.90
22950;DHT22;11641;51.018;4.474;2023-03-14T16:45:28;7.90;99.90
22950;DHT22;11641;51.018;4.474;2023-03-14T16:47:54;7.80;99.90
22950;DHT22;11641;51.018;4.474;2023-03-14T16:50:20;7.70;99.90
22950;DHT22;11641;51.018;4.474;2023-03-14T16:52:45;7.80;99.90
22950;DHT22;11641;51.018;4.474;2023-03-14T16:55:14;7.80;99.90
22950;DHT22;11641;51.018;4.474;2023-03-14T16:57:40;7.80;99.90
22950;DHT22;11641;51.018;4.474;2023-03-14T17:00:06;7.70;99.90
22950;DHT22;11641;51.018;4.474;2023-03-14T17:02:32;7.70;99.90
22950;DHT22;11641;51.018;4.474;2023-03-14T17:04:58;7.80;99.90
22950;DHT22;11641;51.018;4.474;2023-03-14T17:07:24;7.70;99.90
22950;DHT22;11641;51.018;4.474;2023-03-14T17:09:49;8.00;99.90